sensor_id;sensor_type;location;lat;lon;timestamp;P1;durP1;ratioP1;P2;durP2;ratioP2
11998;SDS011;40817;51.520;9.954;2022-09-17T00:01:33;1.75;;;0.50;;
11998;SDS011;40817;51.520;9.954;2022-09-17T00:04:01;2.85;;;0.52;;
11998;SDS011;40817;51.520;9.954;2022-09-17T00:06:31;1.15;;;0.30;;
11998;SDS011;40817;51.520;9.954;2022-09-17T00:09:03;1.50;;;0.70;;
11998;SDS011;40817;51.520;9.954;2022-09-17T00:11:34;1.38;;;0.40;;
11998;SDS011;40817;51.520;9.954;2022-09-17T00:14:06;0.57;;;0.30;;
11998;SDS011;40817;51.520;9.954;2022-09-17T00:16:43;2.28;;;0.40;;
11998;SDS011;40817;51.520;9.954;2022-09-17T00:19:15;1.23;;;0.30;;
11998;SDS011;40817;51.520;9.954;2022-09-17T00:21:45;1.63;;;0.35;;
11998;SDS011;40817;51.520;9.954;2022-09-17T00:24:14;0.40;;;0.20;;
11998;SDS011;40817;51.520;9.954;2022-09-17T00:26:43;1.08;;;0.30;;
11998;SDS011;40817;51.520;9.954;2022-09-17T00:29:13;1.30;;;0.30;;
11998;SDS011;40817;51.520;9.954;2022-09-17T00:31:43;0.65;;;0.30;;
11998;SDS011;40817;51.520;9.954;2022-09-17T00:34:10;1.25;;;0.43;;
11998;SDS011;40817;51.520;9.954;2022-09-17T00:36:39;0.55;;;0.30;;
11998;SDS011;40817;51.520;9.954;2022-09-17T00:39:08;1.38;;;0.47;;
11998;SDS011;40817;51.520;9.954;2022-09-17T00:41:40;1.90;;;0.40;;
11998;SDS011;40817;51.520;9.954;2022-09-17T00:47:18;2.22;;;0.40;;
11998;SDS011;40817;51.520;9.954;2022-09-17T00:49:57;0.70;;;0.35;;
11998;SDS011;40817;51.520;9.954;2022-09-17T00:52:32;0.98;;;0.30;;
11998;SDS011;40817;51.520;9.954;2022-09-17T00:55:06;3.58;;;0.50;;
11998;SDS011;40817;51.520;9.954;2022-09-17T00:57:48;1.00;;;0.30;;
11998;SDS011;40817;51.520;9.954;2022-09-17T01:00:20;0.95;;;0.30;;
11998;SDS011;40817;51.520;9.954;2022-09-17T01:02:51;0.50;;;0.30;;
11998;SDS011;40817;51.520;9.954;2022-09-17T01:05:24;1.23;;;0.30;;
11998;SDS011;40817;51.520;9.954;2022-09-17T01:08:04;0.85;;;0.30;;
11998;SDS011;40817;51.520;9.954;2022-09-17T01:10:54;0.47;;;0.30;;
11998;SDS011;40817;51.520;9.954;2022-09-17T01:13:58;0.90;;;0.30;;
11998;SDS011;40817;51.520;9.954;2022-09-17T01:16:47;0.63;;;0.30;;
11998;SDS011;40817;51.520;9.954;2022-09-17T01:19:42;1.52;;;0.30;;
11998;SDS011;40817;51.520;9.954;2022-09-17T01:22:58;0.88;;;0.30;;
11998;SDS011;40817;51.520;9.954;2022-09-17T01:25:51;1.42;;;0.30;;
11998;SDS011;40817;51.520;9.954;2022-09-17T01:31:23;0.73;;;0.30;;
11998;SDS011;40817;51.520;9.954;2022-09-17T01:34:08;0.47;;;0.30;;
11998;SDS011;40817;51.520;9.954;2022-09-17T01:36:50;0.85;;;0.30;;
11998;SDS011;40817;51.520;9.954;2022-09-17T01:39:38;2.05;;;0.40;;
11998;SDS011;40817;51.520;9.954;2022-09-17T01:42:18;1.35;;;0.30;;
11998;SDS011;40817;51.520;9.954;2022-09-17T01:44:58;2.08;;;0.30;;
11998;SDS011;40817;51.520;9.954;2022-09-17T01:47:37;0.20;;;0.20;;
11998;SDS011;40817;51.520;9.954;2022-09-17T01:50:11;0.30;;;0.20;;
11998;SDS011;40817;51.520;9.954;2022-09-17T01:52:46;1.13;;;0.40;;
11998;SDS011;40817;51.520;9.954;2022-09-17T01:55:17;1.67;;;0.30;;
11998;SDS011;40817;51.520;9.954;2022-09-17T01:57:50;0.45;;;0.20;;
11998;SDS011;40817;51.520;9.954;2022-09-17T02:00:25;1.30;;;0.60;;
11998;SDS011;40817;51.520;9.954;2022-09-17T02:02:55;2.72;;;0.30;;
11998;SDS011;40817;51.520;9.954;2022-09-17T02:05:31;2.42;;;0.40;;
11998;SDS011;40817;51.520;9.954;2022-09-17T02:08:05;3.45;;;0.57;;
11998;SDS011;40817;51.520;9.954;2022-09-17T02:10:39;4.05;;;0.90;;
11998;SDS011;40817;51.520;9.954;2022-09-17T02:13:14;2.92;;;0.70;;
11998;SDS011;40817;51.520;9.954;2022-09-17T02:15:49;2.92;;;0.80;;
11998;SDS011;40817;51.520;9.954;2022-09-17T02:18:25;3.85;;;0.93;;
11998;SDS011;40817;51.520;9.954;2022-09-17T02:21:00;1.67;;;0.73;;
11998;SDS011;40817;51.520;9.954;2022-09-17T02:23:35;5.07;;;0.90;;
11998;SDS011;40817;51.520;9.954;2022-09-17T02:26:14;4.25;;;1.33;;
11998;SDS011;40817;51.520;9.954;2022-09-17T02:28:46;7.90;;;1.73;;
11998;SDS011;40817;51.520;9.954;2022-09-17T02:31:21;6.13;;;1.35;;
11998;SDS011;40817;51.520;9.954;2022-09-17T02:33:50;4.57;;;0.95;;
11998;SDS011;40817;51.520;9.954;2022-09-17T02:36:26;3.67;;;0.93;;
11998;SDS011;40817;51.520;9.954;2022-09-17T02:38:54;4.97;;;0.98;;
11998;SDS011;40817;51.520;9.954;2022-09-17T02:41:29;5.82;;;1.17;;
11998;SDS011;40817;51.520;9.954;2022-09-17T02:44:13;3.70;;;1.10;;
11998;SDS011;40817;51.520;9.954;2022-09-17T02:50:05;4.88;;;1.05;;
11998;SDS011;40817;51.520;9.954;2022-09-17T02:53:03;1.65;;;0.82;;
11998;SDS011;40817;51.520;9.954;2022-09-17T02:56:00;3.65;;;0.90;;
11998;SDS011;40817;51.520;9.954;2022-09-17T02:58:44;5.43;;;1.00;;
11998;SDS011;40817;51.520;9.954;2022-09-17T03:01:19;7.82;;;1.00;;
11998;SDS011;40817;51.520;9.954;2022-09-17T03:04:02;3.58;;;1.10;;
11998;SDS011;40817;51.520;9.954;2022-09-17T03:06:36;3.50;;;1.02;;
11998;SDS011;40817;51.520;9.954;2022-09-17T03:09:05;4.18;;;1.05;;
11998;SDS011;40817;51.520;9.954;2022-09-17T03:11:33;4.30;;;1.10;;
11998;SDS011;40817;51.520;9.954;2022-09-17T03:14:01;4.18;;;0.77;;
11998;SDS011;40817;51.520;9.954;2022-09-17T03:16:29;5.70;;;1.23;;
11998;SDS011;40817;51.520;9.954;2022-09-17T03:18:57;6.53;;;1.30;;
11998;SDS011;40817;51.520;9.954;2022-09-17T03:21:25;4.93;;;1.33;;
11998;SDS011;40817;51.520;9.954;2022-09-17T03:23:54;3.97;;;0.95;;
11998;SDS011;40817;51.520;9.954;2022-09-17T03:26:24;5.05;;;1.10;;
11998;SDS011;40817;51.520;9.954;2022-09-17T03:28:52;4.30;;;1.73;;
11998;SDS011;40817;51.520;9.954;2022-09-17T03:31:20;7.60;;;1.77;;
11998;SDS011;40817;51.520;9.954;2022-09-17T03:33:48;8.02;;;1.50;;
11998;SDS011;40817;51.520;9.954;2022-09-17T03:36:16;5.32;;;1.00;;
11998;SDS011;40817;51.520;9.954;2022-09-17T03:38:43;5.20;;;0.95;;
11998;SDS011;40817;51.520;9.954;2022-09-17T03:41:13;6.88;;;1.20;;
11998;SDS011;40817;51.520;9.954;2022-09-17T03:43:40;5.88;;;1.75;;
11998;SDS011;40817;51.520;9.954;2022-09-17T03:46:08;6.55;;;1.50;;
11998;SDS011;40817;51.520;9.954;2022-09-17T03:48:36;8.50;;;1.15;;
11998;SDS011;40817;51.520;9.954;2022-09-17T03:51:05;4.38;;;1.20;;
11998;SDS011;40817;51.520;9.954;2022-09-17T03:53:32;8.57;;;1.55;;
11998;SDS011;40817;51.520;9.954;2022-09-17T03:56:01;3.88;;;1.15;;
11998;SDS011;40817;51.520;9.954;2022-09-17T03:58:33;8.10;;;1.10;;
11998;SDS011;40817;51.520;9.954;2022-09-17T04:01:01;9.07;;;1.35;;
11998;SDS011;40817;51.520;9.954;2022-09-17T04:03:30;6.40;;;1.20;;
11998;SDS011;40817;51.520;9.954;2022-09-17T04:05:59;6.30;;;1.50;;
11998;SDS011;40817;51.520;9.954;2022-09-17T04:08:27;6.60;;;1.25;;
11998;SDS011;40817;51.520;9.954;2022-09-17T04:10:54;6.60;;;1.45;;
11998;SDS011;40817;51.520;9.954;2022-09-17T04:13:22;8.30;;;1.95;;
11998;SDS011;40817;51.520;9.954;2022-09-17T04:15:51;6.93;;;1.40;;
11998;SDS011;40817;51.520;9.954;2022-09-17T04:18:19;14.90;;;1.98;;
11998;SDS011;40817;51.520;9.954;2022-09-17T04:20:47;7.38;;;1.55;;
11998;SDS011;40817;51.520;9.954;2022-09-17T04:23:14;9.27;;;2.13;;
11998;SDS011;40817;51.520;9.954;2022-09-17T04:25:46;10.20;;;1.50;;
11998;SDS011;40817;51.520;9.954;2022-09-17T04:28:14;10.00;;;1.90;;
11998;SDS011;40817;51.520;9.954;2022-09-17T04:30:42;6.38;;;1.35;;
11998;SDS011;40817;51.520;9.954;2022-09-17T04:33:11;8.63;;;1.52;;
11998;SDS011;40817;51.520;9.954;2022-09-17T04:35:40;8.80;;;1.60;;
11998;SDS011;40817;51.520;9.954;2022-09-17T04:38:08;7.10;;;1.63;;
11998;SDS011;40817;51.520;9.954;2022-09-17T04:40:38;6.55;;;1.33;;
11998;SDS011;40817;51.520;9.954;2022-09-17T04:43:07;7.03;;;1.45;;
11998;SDS011;40817;51.520;9.954;2022-09-17T04:45:36;6.20;;;1.50;;
11998;SDS011;40817;51.520;9.954;2022-09-17T04:48:03;10.27;;;1.55;;
11998;SDS011;40817;51.520;9.954;2022-09-17T04:50:33;5.07;;;1.30;;
11998;SDS011;40817;51.520;9.954;2022-09-17T04:53:00;11.98;;;2.05;;
11998;SDS011;40817;51.520;9.954;2022-09-17T04:55:28;8.77;;;1.80;;
11998;SDS011;40817;51.520;9.954;2022-09-17T04:57:56;8.15;;;1.73;;
11998;SDS011;40817;51.520;9.954;2022-09-17T05:00:24;9.95;;;2.40;;
11998;SDS011;40817;51.520;9.954;2022-09-17T05:02:53;12.27;;;2.25;;
11998;SDS011;40817;51.520;9.954;2022-09-17T05:05:22;8.35;;;1.60;;
11998;SDS011;40817;51.520;9.954;2022-09-17T05:07:52;9.70;;;2.05;;
11998;SDS011;40817;51.520;9.954;2022-09-17T05:10:20;13.45;;;2.47;;
11998;SDS011;40817;51.520;9.954;2022-09-17T05:12:49;13.02;;;2.75;;
11998;SDS011;40817;51.520;9.954;2022-09-17T05:15:18;14.43;;;3.28;;
11998;SDS011;40817;51.520;9.954;2022-09-17T05:17:47;10.73;;;2.38;;
11998;SDS011;40817;51.520;9.954;2022-09-17T05:20:15;11.82;;;3.20;;
11998;SDS011;40817;51.520;9.954;2022-09-17T05:22:44;14.15;;;2.60;;
11998;SDS011;40817;51.520;9.954;2022-09-17T05:25:15;18.65;;;3.13;;
11998;SDS011;40817;51.520;9.954;2022-09-17T05:27:48;10.05;;;2.90;;
11998;SDS011;40817;51.520;9.954;2022-09-17T05:30:18;11.45;;;2.22;;
11998;SDS011;40817;51.520;9.954;2022-09-17T05:32:46;10.15;;;2.28;;
11998;SDS011;40817;51.520;9.954;2022-09-17T05:35:14;12.48;;;2.20;;
11998;SDS011;40817;51.520;9.954;2022-09-17T05:37:42;12.90;;;2.53;;
11998;SDS011;40817;51.520;9.954;2022-09-17T05:40:09;15.05;;;2.50;;
11998;SDS011;40817;51.520;9.954;2022-09-17T05:42:39;15.02;;;2.80;;
11998;SDS011;40817;51.520;9.954;2022-09-17T05:45:07;13.13;;;2.60;;
11998;SDS011;40817;51.520;9.954;2022-09-17T05:47:36;13.30;;;2.78;;
11998;SDS011;40817;51.520;9.954;2022-09-17T05:50:04;15.55;;;3.47;;
11998;SDS011;40817;51.520;9.954;2022-09-17T05:52:32;15.95;;;2.83;;
11998;SDS011;40817;51.520;9.954;2022-09-17T05:55:00;13.88;;;2.92;;
11998;SDS011;40817;51.520;9.954;2022-09-17T05:57:28;17.73;;;2.60;;
11998;SDS011;40817;51.520;9.954;2022-09-17T05:59:57;23.55;;;3.65;;
11998;SDS011;40817;51.520;9.954;2022-09-17T06:02:25;13.98;;;2.97;;
11998;SDS011;40817;51.520;9.954;2022-09-17T06:04:52;18.25;;;3.85;;
11998;SDS011;40817;51.520;9.954;2022-09-17T06:07:20;15.15;;;2.33;;
11998;SDS011;40817;51.520;9.954;2022-09-17T06:09:48;12.02;;;2.45;;
11998;SDS011;40817;51.520;9.954;2022-09-17T06:12:16;10.40;;;2.33;;
11998;SDS011;40817;51.520;9.954;2022-09-17T06:14:43;12.45;;;2.40;;
11998;SDS011;40817;51.520;9.954;2022-09-17T06:17:12;13.23;;;2.40;;
11998;SDS011;40817;51.520;9.954;2022-09-17T06:19:41;19.02;;;2.90;;
11998;SDS011;40817;51.520;9.954;2022-09-17T06:22:08;13.48;;;2.20;;
11998;SDS011;40817;51.520;9.954;2022-09-17T06:24:36;15.43;;;3.03;;
11998;SDS011;40817;51.520;9.954;2022-09-17T06:27:04;17.27;;;3.22;;
11998;SDS011;40817;51.520;9.954;2022-09-17T06:29:32;15.48;;;2.80;;
11998;SDS011;40817;51.520;9.954;2022-09-17T06:32:00;13.18;;;2.80;;
11998;SDS011;40817;51.520;9.954;2022-09-17T06:34:29;11.43;;;2.63;;
11998;SDS011;40817;51.520;9.954;2022-09-17T06:36:57;13.00;;;2.42;;
11998;SDS011;40817;51.520;9.954;2022-09-17T06:39:25;17.77;;;2.50;;
11998;SDS011;40817;51.520;9.954;2022-09-17T06:41:53;11.68;;;3.00;;
11998;SDS011;40817;51.520;9.954;2022-09-17T06:44:21;9.82;;;2.47;;
11998;SDS011;40817;51.520;9.954;2022-09-17T06:46:49;12.43;;;2.33;;
11998;SDS011;40817;51.520;9.954;2022-09-17T06:49:17;19.08;;;4.25;;
11998;SDS011;40817;51.520;9.954;2022-09-17T06:51:46;13.23;;;2.40;;
11998;SDS011;40817;51.520;9.954;2022-09-17T06:54:14;10.52;;;1.95;;
11998;SDS011;40817;51.520;9.954;2022-09-17T06:56:44;16.15;;;2.97;;
11998;SDS011;40817;51.520;9.954;2022-09-17T06:59:12;20.48;;;3.53;;
11998;SDS011;40817;51.520;9.954;2022-09-17T07:01:40;9.95;;;2.20;;
11998;SDS011;40817;51.520;9.954;2022-09-17T07:04:08;15.73;;;2.75;;
11998;SDS011;40817;51.520;9.954;2022-09-17T07:06:36;13.57;;;3.55;;
11998;SDS011;40817;51.520;9.954;2022-09-17T07:09:05;11.57;;;2.47;;
11998;SDS011;40817;51.520;9.954;2022-09-17T07:11:34;10.10;;;2.70;;
11998;SDS011;40817;51.520;9.954;2022-09-17T07:14:01;16.23;;;3.67;;
11998;SDS011;40817;51.520;9.954;2022-09-17T07:16:29;14.85;;;3.05;;
11998;SDS011;40817;51.520;9.954;2022-09-17T07:19:00;11.20;;;1.75;;
11998;SDS011;40817;51.520;9.954;2022-09-17T07:21:28;16.88;;;2.22;;
11998;SDS011;40817;51.520;9.954;2022-09-17T07:23:56;12.25;;;2.92;;
11998;SDS011;40817;51.520;9.954;2022-09-17T07:26:25;16.90;;;3.55;;
11998;SDS011;40817;51.520;9.954;2022-09-17T07:28:52;13.10;;;2.50;;
11998;SDS011;40817;51.520;9.954;2022-09-17T07:31:20;11.25;;;1.90;;
11998;SDS011;40817;51.520;9.954;2022-09-17T07:33:47;18.67;;;3.38;;
11998;SDS011;40817;51.520;9.954;2022-09-17T07:36:15;12.10;;;2.72;;
11998;SDS011;40817;51.520;9.954;2022-09-17T07:38:43;11.60;;;2.67;;
11998;SDS011;40817;51.520;9.954;2022-09-17T07:41:11;16.92;;;2.55;;
11998;SDS011;40817;51.520;9.954;2022-09-17T07:43:44;10.70;;;2.00;;
11998;SDS011;40817;51.520;9.954;2022-09-17T07:46:12;17.58;;;2.92;;
11998;SDS011;40817;51.520;9.954;2022-09-17T07:48:42;11.98;;;2.30;;
11998;SDS011;40817;51.520;9.954;2022-09-17T07:51:13;10.38;;;1.98;;
11998;SDS011;40817;51.520;9.954;2022-09-17T07:53:42;8.63;;;2.55;;
11998;SDS011;40817;51.520;9.954;2022-09-17T07:56:10;10.10;;;1.98;;
11998;SDS011;40817;51.520;9.954;2022-09-17T07:58:46;13.75;;;2.70;;
11998;SDS011;40817;51.520;9.954;2022-09-17T08:01:14;11.63;;;2.95;;
11998;SDS011;40817;51.520;9.954;2022-09-17T08:03:46;13.07;;;3.15;;
11998;SDS011;40817;51.520;9.954;2022-09-17T08:06:24;12.45;;;3.00;;
11998;SDS011;40817;51.520;9.954;2022-09-17T08:08:53;18.42;;;3.60;;
11998;SDS011;40817;51.520;9.954;2022-09-17T08:11:23;17.88;;;2.88;;
11998;SDS011;40817;51.520;9.954;2022-09-17T08:13:55;15.15;;;2.80;;
11998;SDS011;40817;51.520;9.954;2022-09-17T08:16:24;12.40;;;2.60;;
11998;SDS011;40817;51.520;9.954;2022-09-17T08:18:53;17.13;;;2.22;;
11998;SDS011;40817;51.520;9.954;2022-09-17T08:21:23;13.13;;;2.42;;
11998;SDS011;40817;51.520;9.954;2022-09-17T08:23:51;11.82;;;2.63;;
11998;SDS011;40817;51.520;9.954;2022-09-17T08:26:19;7.70;;;2.15;;
11998;SDS011;40817;51.520;9.954;2022-09-17T08:28:50;12.88;;;2.67;;
11998;SDS011;40817;51.520;9.954;2022-09-17T08:31:22;10.27;;;2.30;;
11998;SDS011;40817;51.520;9.954;2022-09-17T08:33:52;20.35;;;2.45;;
11998;SDS011;40817;51.520;9.954;2022-09-17T08:36:20;11.52;;;2.70;;
11998;SDS011;40817;51.520;9.954;2022-09-17T08:38:51;15.23;;;2.95;;
11998;SDS011;40817;51.520;9.954;2022-09-17T08:41:22;9.85;;;3.00;;
11998;SDS011;40817;51.520;9.954;2022-09-17T08:44:08;11.73;;;2.15;;
11998;SDS011;40817;51.520;9.954;2022-09-17T08:46:50;14.77;;;2.70;;
11998;SDS011;40817;51.520;9.954;2022-09-17T08:49:31;16.73;;;3.78;;
11998;SDS011;40817;51.520;9.954;2022-09-17T08:52:18;9.73;;;2.30;;
11998;SDS011;40817;51.520;9.954;2022-09-17T08:55:39;12.32;;;2.13;;
11998;SDS011;40817;51.520;9.954;2022-09-17T08:58:26;12.90;;;2.28;;
11998;SDS011;40817;51.520;9.954;2022-09-17T09:01:23;9.35;;;2.13;;
11998;SDS011;40817;51.520;9.954;2022-09-17T09:04:19;12.77;;;2.28;;
11998;SDS011;40817;51.520;9.954;2022-09-17T09:07:24;9.98;;;2.20;;
11998;SDS011;40817;51.520;9.954;2022-09-17T09:09:58;14.18;;;2.60;;
11998;SDS011;40817;51.520;9.954;2022-09-17T09:12:38;10.25;;;2.35;;
11998;SDS011;40817;51.520;9.954;2022-09-17T09:15:14;12.45;;;2.42;;
11998;SDS011;40817;51.520;9.954;2022-09-17T09:18:04;8.18;;;2.42;;
11998;SDS011;40817;51.520;9.954;2022-09-17T09:20:47;12.13;;;2.45;;
11998;SDS011;40817;51.520;9.954;2022-09-17T09:23:18;10.68;;;2.17;;
11998;SDS011;40817;51.520;9.954;2022-09-17T09:26:14;16.27;;;2.30;;
11998;SDS011;40817;51.520;9.954;2022-09-17T09:34:50;9.98;;;1.65;;
11998;SDS011;40817;51.520;9.954;2022-09-17T09:37:22;14.88;;;2.05;;
11998;SDS011;40817;51.520;9.954;2022-09-17T09:39:58;8.25;;;2.05;;
11998;SDS011;40817;51.520;9.954;2022-09-17T09:42:41;10.57;;;2.10;;
11998;SDS011;40817;51.520;9.954;2022-09-17T09:45:11;15.70;;;2.42;;
11998;SDS011;40817;51.520;9.954;2022-09-17T09:47:48;11.18;;;2.38;;
11998;SDS011;40817;51.520;9.954;2022-09-17T09:50:29;10.65;;;2.10;;
11998;SDS011;40817;51.520;9.954;2022-09-17T09:53:12;12.32;;;1.88;;
11998;SDS011;40817;51.520;9.954;2022-09-17T09:56:01;7.00;;;1.67;;
11998;SDS011;40817;51.520;9.954;2022-09-17T09:58:53;8.75;;;2.60;;
11998;SDS011;40817;51.520;9.954;2022-09-17T10:01:21;12.43;;;2.38;;
11998;SDS011;40817;51.520;9.954;2022-09-17T10:03:52;9.98;;;1.92;;
11998;SDS011;40817;51.520;9.954;2022-09-17T10:06:22;5.88;;;1.50;;
11998;SDS011;40817;51.520;9.954;2022-09-17T10:09:10;9.00;;;1.65;;
11998;SDS011;40817;51.520;9.954;2022-09-17T10:11:42;6.68;;;1.58;;
11998;SDS011;40817;51.520;9.954;2022-09-17T10:14:32;7.35;;;1.60;;
11998;SDS011;40817;51.520;9.954;2022-09-17T10:17:12;8.20;;;1.80;;
11998;SDS011;40817;51.520;9.954;2022-09-17T10:22:42;12.85;;;2.05;;
11998;SDS011;40817;51.520;9.954;2022-09-17T10:25:19;10.43;;;1.98;;
11998;SDS011;40817;51.520;9.954;2022-09-17T10:27:55;9.32;;;2.10;;
11998;SDS011;40817;51.520;9.954;2022-09-17T10:30:26;10.00;;;1.95;;
11998;SDS011;40817;51.520;9.954;2022-09-17T10:33:14;7.55;;;2.00;;
11998;SDS011;40817;51.520;9.954;2022-09-17T10:35:55;14.13;;;1.92;;
11998;SDS011;40817;51.520;9.954;2022-09-17T10:38:28;7.47;;;1.98;;
11998;SDS011;40817;51.520;9.954;2022-09-17T10:41:14;10.80;;;2.17;;
11998;SDS011;40817;51.520;9.954;2022-09-17T10:43:46;11.50;;;2.00;;
11998;SDS011;40817;51.520;9.954;2022-09-17T10:46:15;10.43;;;1.77;;
11998;SDS011;40817;51.520;9.954;2022-09-17T10:48:52;11.93;;;2.35;;
11998;SDS011;40817;51.520;9.954;2022-09-17T10:51:33;8.60;;;2.42;;
11998;SDS011;40817;51.520;9.954;2022-09-17T10:54:20;8.95;;;1.90;;
11998;SDS011;40817;51.520;9.954;2022-09-17T10:57:20;9.43;;;2.08;;
11998;SDS011;40817;51.520;9.954;2022-09-17T11:00:10;8.40;;;1.42;;
11998;SDS011;40817;51.520;9.954;2022-09-17T11:06:30;10.50;;;1.50;;
11998;SDS011;40817;51.520;9.954;2022-09-17T11:09:29;12.05;;;2.55;;
11998;SDS011;40817;51.520;9.954;2022-09-17T11:12:16;10.80;;;1.65;;
11998;SDS011;40817;51.520;9.954;2022-09-17T11:15:05;11.07;;;1.98;;
11998;SDS011;40817;51.520;9.954;2022-09-17T11:24:25;6.90;;;1.17;;
11998;SDS011;40817;51.520;9.954;2022-09-17T11:27:29;6.15;;;1.50;;
11998;SDS011;40817;51.520;9.954;2022-09-17T11:30:13;4.03;;;1.30;;
11998;SDS011;40817;51.520;9.954;2022-09-17T11:32:51;4.75;;;1.05;;
11998;SDS011;40817;51.520;9.954;2022-09-17T11:35:51;6.50;;;1.20;;
11998;SDS011;40817;51.520;9.954;2022-09-17T11:38:26;6.10;;;1.30;;
11998;SDS011;40817;51.520;9.954;2022-09-17T11:41:05;6.07;;;1.33;;
11998;SDS011;40817;51.520;9.954;2022-09-17T11:43:40;6.28;;;1.35;;
11998;SDS011;40817;51.520;9.954;2022-09-17T11:46:13;4.43;;;0.98;;
11998;SDS011;40817;51.520;9.954;2022-09-17T11:48:49;5.05;;;1.08;;
11998;SDS011;40817;51.520;9.954;2022-09-17T11:51:26;3.25;;;0.93;;
11998;SDS011;40817;51.520;9.954;2022-09-17T11:54:02;6.07;;;1.50;;
11998;SDS011;40817;51.520;9.954;2022-09-17T11:56:34;5.30;;;1.10;;
11998;SDS011;40817;51.520;9.954;2022-09-17T11:59:12;5.97;;;1.60;;
11998;SDS011;40817;51.520;9.954;2022-09-17T12:01:47;5.38;;;1.50;;
11998;SDS011;40817;51.520;9.954;2022-09-17T12:04:31;5.90;;;1.35;;
11998;SDS011;40817;51.520;9.954;2022-09-17T12:09:54;3.60;;;1.15;;
11998;SDS011;40817;51.520;9.954;2022-09-17T12:12:26;5.72;;;1.75;;
11998;SDS011;40817;51.520;9.954;2022-09-17T12:14:57;3.70;;;0.80;;
11998;SDS011;40817;51.520;9.954;2022-09-17T12:17:33;7.65;;;1.15;;
11998;SDS011;40817;51.520;9.954;2022-09-17T12:20:12;5.82;;;0.90;;
11998;SDS011;40817;51.520;9.954;2022-09-17T12:23:02;5.35;;;1.15;;
11998;SDS011;40817;51.520;9.954;2022-09-17T12:25:41;5.82;;;1.20;;
11998;SDS011;40817;51.520;9.954;2022-09-17T12:28:19;4.22;;;0.85;;
11998;SDS011;40817;51.520;9.954;2022-09-17T12:30:58;4.68;;;0.80;;
11998;SDS011;40817;51.520;9.954;2022-09-17T12:33:38;5.93;;;1.38;;
11998;SDS011;40817;51.520;9.954;2022-09-17T12:36:17;5.97;;;1.42;;
11998;SDS011;40817;51.520;9.954;2022-09-17T12:42:18;7.53;;;1.10;;
11998;SDS011;40817;51.520;9.954;2022-09-17T12:45:25;7.40;;;1.10;;
11998;SDS011;40817;51.520;9.954;2022-09-17T12:48:14;4.03;;;1.20;;
11998;SDS011;40817;51.520;9.954;2022-09-17T12:51:42;5.63;;;0.90;;
11998;SDS011;40817;51.520;9.954;2022-09-17T12:54:25;3.83;;;0.82;;
11998;SDS011;40817;51.520;9.954;2022-09-17T12:57:33;3.22;;;0.70;;
11998;SDS011;40817;51.520;9.954;2022-09-17T13:00:12;4.95;;;0.73;;
11998;SDS011;40817;51.520;9.954;2022-09-17T13:02:42;5.88;;;1.13;;
11998;SDS011;40817;51.520;9.954;2022-09-17T13:05:25;2.53;;;0.80;;
11998;SDS011;40817;51.520;9.954;2022-09-17T13:12:15;1.60;;;0.50;;
11998;SDS011;40817;51.520;9.954;2022-09-17T13:18:14;4.25;;;0.70;;
11998;SDS011;40817;51.520;9.954;2022-09-17T13:20:56;2.85;;;0.65;;
11998;SDS011;40817;51.520;9.954;2022-09-17T13:23:32;2.38;;;1.02;;
11998;SDS011;40817;51.520;9.954;2022-09-17T13:26:06;5.13;;;0.80;;
11998;SDS011;40817;51.520;9.954;2022-09-17T13:28:35;3.13;;;0.70;;
11998;SDS011;40817;51.520;9.954;2022-09-17T13:31:07;2.55;;;0.68;;
11998;SDS011;40817;51.520;9.954;2022-09-17T13:33:55;4.00;;;0.80;;
11998;SDS011;40817;51.520;9.954;2022-09-17T13:36:40;2.13;;;0.77;;
11998;SDS011;40817;51.520;9.954;2022-09-17T13:42:08;4.15;;;0.70;;
11998;SDS011;40817;51.520;9.954;2022-09-17T13:44:47;6.43;;;0.75;;
11998;SDS011;40817;51.520;9.954;2022-09-17T13:47:28;3.85;;;0.50;;
11998;SDS011;40817;51.520;9.954;2022-09-17T13:49:58;9.38;;;1.10;;
11998;SDS011;40817;51.520;9.954;2022-09-17T13:52:34;3.00;;;0.70;;
11998;SDS011;40817;51.520;9.954;2022-09-17T13:55:07;2.33;;;0.60;;
11998;SDS011;40817;51.520;9.954;2022-09-17T13:57:55;4.03;;;0.57;;
11998;SDS011;40817;51.520;9.954;2022-09-17T14:09:32;3.95;;;1.13;;
11998;SDS011;40817;51.520;9.954;2022-09-17T14:15:34;5.38;;;1.52;;
11998;SDS011;40817;51.520;9.954;2022-09-17T14:18:34;4.05;;;0.73;;
11998;SDS011;40817;51.520;9.954;2022-09-17T14:21:16;3.10;;;1.10;;
11998;SDS011;40817;51.520;9.954;2022-09-17T14:24:00;1.98;;;0.80;;
11998;SDS011;40817;51.520;9.954;2022-09-17T14:26:52;4.35;;;1.50;;
11998;SDS011;40817;51.520;9.954;2022-09-17T14:29:40;4.45;;;1.05;;
11998;SDS011;40817;51.520;9.954;2022-09-17T14:32:47;4.28;;;0.80;;
11998;SDS011;40817;51.520;9.954;2022-09-17T14:35:27;3.38;;;0.70;;
11998;SDS011;40817;51.520;9.954;2022-09-17T14:38:02;2.40;;;0.98;;
11998;SDS011;40817;51.520;9.954;2022-09-17T14:40:41;2.60;;;0.50;;
11998;SDS011;40817;51.520;9.954;2022-09-17T14:43:16;6.75;;;1.52;;
11998;SDS011;40817;51.520;9.954;2022-09-17T14:45:52;4.18;;;1.05;;
11998;SDS011;40817;51.520;9.954;2022-09-17T14:48:26;4.57;;;0.93;;
11998;SDS011;40817;51.520;9.954;2022-09-17T14:54:07;7.25;;;0.93;;
11998;SDS011;40817;51.520;9.954;2022-09-17T14:56:48;2.60;;;0.65;;
11998;SDS011;40817;51.520;9.954;2022-09-17T14:59:32;3.60;;;0.60;;
11998;SDS011;40817;51.520;9.954;2022-09-17T15:02:30;4.15;;;0.82;;
11998;SDS011;40817;51.520;9.954;2022-09-17T15:05:16;1.55;;;0.80;;
11998;SDS011;40817;51.520;9.954;2022-09-17T15:07:50;3.20;;;0.80;;
11998;SDS011;40817;51.520;9.954;2022-09-17T15:10:30;2.47;;;0.70;;
11998;SDS011;40817;51.520;9.954;2022-09-17T15:12:58;2.83;;;0.70;;
11998;SDS011;40817;51.520;9.954;2022-09-17T15:15:28;3.58;;;0.95;;
11998;SDS011;40817;51.520;9.954;2022-09-17T15:17:56;3.95;;;0.65;;
11998;SDS011;40817;51.520;9.954;2022-09-17T15:20:27;3.13;;;0.93;;
11998;SDS011;40817;51.520;9.954;2022-09-17T15:23:02;3.13;;;1.00;;
11998;SDS011;40817;51.520;9.954;2022-09-17T15:25:43;4.38;;;0.60;;
11998;SDS011;40817;51.520;9.954;2022-09-17T15:28:16;2.70;;;0.57;;
11998;SDS011;40817;51.520;9.954;2022-09-17T15:30:55;7.57;;;1.25;;
11998;SDS011;40817;51.520;9.954;2022-09-17T15:33:23;2.80;;;0.73;;
11998;SDS011;40817;51.520;9.954;2022-09-17T15:35:59;2.65;;;0.60;;
11998;SDS011;40817;51.520;9.954;2022-09-17T15:38:40;3.03;;;1.02;;
11998;SDS011;40817;51.520;9.954;2022-09-17T15:41:24;2.63;;;0.60;;
11998;SDS011;40817;51.520;9.954;2022-09-17T15:44:14;2.55;;;0.65;;
11998;SDS011;40817;51.520;9.954;2022-09-17T15:46:50;3.05;;;0.70;;
11998;SDS011;40817;51.520;9.954;2022-09-17T15:49:25;3.80;;;0.77;;
11998;SDS011;40817;51.520;9.954;2022-09-17T15:54:59;5.65;;;0.70;;
11998;SDS011;40817;51.520;9.954;2022-09-17T15:57:28;4.50;;;0.82;;
11998;SDS011;40817;51.520;9.954;2022-09-17T16:00:04;1.30;;;0.50;;
11998;SDS011;40817;51.520;9.954;2022-09-17T16:02:39;3.33;;;0.60;;
11998;SDS011;40817;51.520;9.954;2022-09-17T16:08:18;3.15;;;0.80;;
11998;SDS011;40817;51.520;9.954;2022-09-17T16:10:50;2.95;;;0.90;;
11998;SDS011;40817;51.520;9.954;2022-09-17T16:13:18;4.85;;;0.90;;
11998;SDS011;40817;51.520;9.954;2022-09-17T16:15:45;5.65;;;0.93;;
11998;SDS011;40817;51.520;9.954;2022-09-17T16:18:15;6.40;;;1.13;;
11998;SDS011;40817;51.520;9.954;2022-09-17T16:20:43;8.30;;;0.77;;
11998;SDS011;40817;51.520;9.954;2022-09-17T16:23:10;6.28;;;0.82;;
11998;SDS011;40817;51.520;9.954;2022-09-17T16:25:38;4.20;;;1.17;;
11998;SDS011;40817;51.520;9.954;2022-09-17T16:28:08;6.03;;;0.95;;
11998;SDS011;40817;51.520;9.954;2022-09-17T16:30:40;6.30;;;0.90;;
11998;SDS011;40817;51.520;9.954;2022-09-17T16:33:12;4.82;;;1.33;;
11998;SDS011;40817;51.520;9.954;2022-09-17T16:35:43;2.25;;;0.90;;
11998;SDS011;40817;51.520;9.954;2022-09-17T16:38:11;3.97;;;0.80;;